createdAt,value
2022-08-17T00:12:34.793Z,1.10
2022-08-17T00:26:34.833Z,1.30
2022-08-17T00:40:26.117Z,1.40
2022-08-17T00:54:26.207Z,1.20
2022-08-17T01:08:26.221Z,1.70
2022-08-17T01:22:26.200Z,1.20
2022-08-17T01:36:26.216Z,1.40
2022-08-17T01:50:26.204Z,1.30
2022-08-17T02:04:26.204Z,1.10
2022-08-17T02:18:26.249Z,1.20
2022-08-17T02:32:27.774Z,1.20
2022-08-17T02:46:26.257Z,1.40
2022-08-17T03:00:26.250Z,1.50
2022-08-17T03:14:26.447Z,1.30
2022-08-17T03:28:26.641Z,1.40
2022-08-17T03:42:31.765Z,1.60
2022-08-17T03:56:26.884Z,1.60
2022-08-17T04:11:26.941Z,1.50
2022-08-17T04:26:52.403Z,1.50
2022-08-17T04:41:26.938Z,1.40
2022-08-17T04:56:26.980Z,1.40
2022-08-17T05:11:27.043Z,1.40
2022-08-17T05:26:27.295Z,1.30
2022-08-17T05:41:27.179Z,1.60
2022-08-17T05:56:29.349Z,1.50
2022-08-17T06:11:27.207Z,1.40
2022-08-17T06:26:27.545Z,1.30
2022-08-17T06:41:27.181Z,1.40
2022-08-17T06:56:27.243Z,1.30
2022-08-17T07:11:27.238Z,1.40
2022-08-17T07:26:27.225Z,1.20
2022-08-17T07:41:27.232Z,1.30
2022-08-17T07:56:27.247Z,1.20
2022-08-17T08:11:27.254Z,1.20
2022-08-17T08:26:27.271Z,1.00
2022-08-17T08:41:27.270Z,1.30
2022-08-17T08:56:27.379Z,1.10
2022-08-17T09:11:27.544Z,1.10
2022-08-17T09:26:27.529Z,1.10
2022-08-17T09:41:27.558Z,1.10
2022-08-17T09:56:27.589Z,1.20
2022-08-17T10:11:33.361Z,1.00
2022-08-17T10:26:27.583Z,1.10
2022-08-17T10:42:30.554Z,1.10
2022-08-17T10:49:48.723Z,1.30
2022-08-17T11:04:48.754Z,1.10
2022-08-17T11:19:48.779Z,1.20
2022-08-17T11:34:48.972Z,1.20
2022-08-17T11:49:48.930Z,1.30
2022-08-17T12:04:48.973Z,1.20
2022-08-17T12:19:48.925Z,1.20
2022-08-17T12:34:48.895Z,1.30
2022-08-17T12:49:48.937Z,1.30
2022-08-17T13:04:48.926Z,1.30
2022-08-17T13:19:48.977Z,1.00
2022-08-17T13:35:13.414Z,1.10
2022-08-17T13:49:49.430Z,1.40
2022-08-17T14:04:49.008Z,1.30
2022-08-17T14:19:49.020Z,1.30
2022-08-17T14:34:49.010Z,1.30
2022-08-17T14:49:49.179Z,1.50
2022-08-17T15:04:49.300Z,1.20
2022-08-17T15:19:49.438Z,1.30
2022-08-17T15:34:49.553Z,1.70
2022-08-17T15:49:49.654Z,1.40
2022-08-17T16:04:49.786Z,1.40
2022-08-17T16:19:49.695Z,1.30
2022-08-17T16:34:49.889Z,1.20
2022-08-17T16:49:49.896Z,1.60
2022-08-17T17:04:50.265Z,1.30
2022-08-17T17:19:50.268Z,1.40
2022-08-17T17:34:51.145Z,1.80
2022-08-17T17:49:50.941Z,1.50
2022-08-17T18:04:50.562Z,1.60
2022-08-17T18:19:51.064Z,1.60
2022-08-17T18:34:51.122Z,1.50
2022-08-17T18:48:51.088Z,1.30
2022-08-17T19:02:51.229Z,1.50
2022-08-17T19:16:50.788Z,1.60
2022-08-17T19:30:50.810Z,2.10
2022-08-17T19:44:51.227Z,2.00
2022-08-17T19:58:51.486Z,2.10
2022-08-17T20:12:50.887Z,2.50
2022-08-17T20:26:51.259Z,1.60
2022-08-17T20:40:50.836Z,1.70
2022-08-17T20:54:51.313Z,1.60
2022-08-17T21:08:51.015Z,2.00
2022-08-17T21:22:51.449Z,1.70
2022-08-17T21:36:50.989Z,1.90
2022-08-17T21:50:51.043Z,1.60
2022-08-17T22:04:51.626Z,2.20
2022-08-17T22:18:53.655Z,1.90
2022-08-17T22:32:51.611Z,1.60
2022-08-17T22:46:51.171Z,1.80
2022-08-17T23:00:51.184Z,1.90
2022-08-17T23:14:51.179Z,1.60
2022-08-17T23:28:51.214Z,1.50
2022-08-17T23:42:51.213Z,1.60
2022-08-17T23:56:51.187Z,1.50
